sensor_id;sensor_type;location;lat;lon;timestamp;pressure;altitude;pressure_sealevel;temperature;humidity
58875;BME280;44652;49.040;12.126;2023-12-20T05:56:03;97412.41;;;3.38;100.00
58875;BME280;44652;49.040;12.126;2023-12-20T05:58:31;97424.69;;;3.41;100.00
58875;BME280;44652;49.040;12.126;2023-12-20T06:00:58;97420.50;;;3.45;100.00
58875;BME280;44652;49.040;12.126;2023-12-20T06:03:25;97423.47;;;3.34;100.00
58875;BME280;44652;49.040;12.126;2023-12-20T06:05:52;97420.38;;;3.41;100.00
58875;BME280;44652;49.040;12.126;2023-12-20T06:08:31;97431.75;;;3.44;100.00
58875;BME280;44652;49.040;12.126;2023-12-20T06:10:57;97439.28;;;3.21;100.00
58875;BME280;44652;49.040;12.126;2023-12-20T06:13:24;97437.78;;;3.42;100.00
58875;BME280;44652;49.040;12.126;2023-12-20T06:15:51;97431.84;;;3.29;100.00
58875;BME280;44652;49.040;12.126;2023-12-20T06:18:18;97449.09;;;3.43;100.00
58875;BME280;44652;49.040;12.126;2023-12-20T06:20:45;97452.16;;;3.52;100.00
58875;BME280;44652;49.040;12.126;2023-12-20T06:23:12;97431.19;;;3.33;100.00
58875;BME280;44652;49.040;12.126;2023-12-20T06:25:38;97439.09;;;3.34;100.00
58875;BME280;44652;49.040;12.126;2023-12-20T06:28:05;97450.22;;;3.48;100.00
58875;BME280;44652;49.040;12.126;2023-12-20T06:30:32;97436.66;;;3.37;100.00
58875;BME280;44652;49.040;12.126;2023-12-20T06:32:59;97442.16;;;3.44;100.00
58875;BME280;44652;49.040;12.126;2023-12-20T06:35:26;97469.38;;;3.49;100.00
58875;BME280;44652;49.040;12.126;2023-12-20T06:37:53;97468.09;;;3.58;100.00
58875;BME280;44652;49.040;12.126;2023-12-20T06:40:19;97475.25;;;3.62;100.00
58875;BME280;44652;49.040;12.126;2023-12-20T06:42:46;97451.53;;;3.40;100.00
58875;BME280;44652;49.040;12.126;2023-12-20T06:45:30;97466.81;;;3.50;100.00
58875;BME280;44652;49.040;12.126;2023-12-20T06:47:57;97461.56;;;3.49;100.00
58875;BME280;44652;49.040;12.126;2023-12-20T06:50:24;97461.16;;;3.41;100.00
58875;BME280;44652;49.040;12.126;2023-12-20T06:52:51;97458.00;;;3.30;100.00
58875;BME280;44652;49.040;12.126;2023-12-20T06:55:19;97457.91;;;3.29;100.00
58875;BME280;44652;49.040;12.126;2023-12-20T06:57:45;97461.16;;;3.41;100.00
58875;BME280;44652;49.040;12.126;2023-12-20T07:00:13;97496.44;;;3.52;100.00
58875;BME280;44652;49.040;12.126;2023-12-20T07:02:40;97476.47;;;3.35;100.00
58875;BME280;44652;49.040;12.126;2023-12-20T07:05:07;97494.50;;;3.48;100.00
58875;BME280;44652;49.040;12.126;2023-12-20T07:07:34;97479.28;;;3.39;100.00
58875;BME280;44652;49.040;12.126;2023-12-20T07:10:01;97493.81;;;3.34;100.00
58875;BME280;44652;49.040;12.126;2023-12-20T07:12:28;97479.78;;;3.49;100.00
58875;BME280;44652;49.040;12.126;2023-12-20T07:14:55;97495.97;;;3.43;100.00
58875;BME280;44652;49.040;12.126;2023-12-20T07:17:22;97504.50;;;3.40;100.00
58875;BME280;44652;49.040;12.126;2023-12-20T07:19:49;97483.78;;;3.42;100.00
58875;BME280;44652;49.040;12.126;2023-12-20T07:22:16;97490.69;;;3.41;100.00
58875;BME280;44652;49.040;12.126;2023-12-20T07:24:42;97509.63;;;3.55;100.00
58875;BME280;44652;49.040;12.126;2023-12-20T07:27:09;97511.28;;;3.53;100.00
58875;BME280;44652;49.040;12.126;2023-12-20T07:29:36;97504.69;;;3.60;100.00
58875;BME280;44652;49.040;12.126;2023-12-20T07:32:03;97492.94;;;3.52;100.00
58875;BME280;44652;49.040;12.126;2023-12-20T07:34:30;97513.28;;;3.59;100.00
58875;BME280;44652;49.040;12.126;2023-12-20T07:36:58;97515.50;;;3.51;100.00
58875;BME280;44652;49.040;12.126;2023-12-20T07:39:25;97508.44;;;3.49;100.00
58875;BME280;44652;49.040;12.126;2023-12-20T07:41:52;97530.50;;;3.39;100.00
58875;BME280;44652;49.040;12.126;2023-12-20T07:44:19;97547.97;;;3.58;100.00
58875;BME280;44652;49.040;12.126;2023-12-20T07:46:45;97543.81;;;3.61;100.00
58875;BME280;44652;49.040;12.126;2023-12-20T07:49:12;97531.63;;;3.44;100.00
58875;BME280;44652;49.040;12.126;2023-12-20T07:51:39;97557.19;;;3.51;100.00
58875;BME280;44652;49.040;12.126;2023-12-20T07:54:05;97565.88;;;3.52;100.00
58875;BME280;44652;49.040;12.126;2023-12-20T07:56:34;97553.53;;;3.48;100.00
58875;BME280;44652;49.040;12.126;2023-12-20T07:59:01;97539.63;;;3.31;100.00
58875;BME280;44652;49.040;12.126;2023-12-20T08:01:28;97537.97;;;3.33;100.00
58875;BME280;44652;49.040;12.126;2023-12-20T08:03:54;97564.03;;;3.33;100.00
58875;BME280;44652;49.040;12.126;2023-12-20T08:06:21;97543.47;;;3.37;100.00
58875;BME280;44652;49.040;12.126;2023-12-20T08:08:48;97545.97;;;3.36;100.00
58875;BME280;44652;49.040;12.126;2023-12-20T08:11:27;97558.25;;;3.38;100.00
58875;BME280;44652;49.040;12.126;2023-12-20T08:13:53;97550.94;;;3.31;100.00
58875;BME280;44652;49.040;12.126;2023-12-20T08:16:20;97564.53;;;3.42;100.00
58875;BME280;44652;49.040;12.126;2023-12-20T08:18:47;97580.06;;;3.40;100.00
58875;BME280;44652;49.040;12.126;2023-12-20T08:21:14;97568.34;;;3.49;100.00
58875;BME280;44652;49.040;12.126;2023-12-20T08:23:41;97574.69;;;3.54;100.00
58875;BME280;44652;49.040;12.126;2023-12-20T08:26:10;97571.53;;;3.43;100.00
58875;BME280;44652;49.040;12.126;2023-12-20T08:28:37;97560.28;;;3.44;100.00
58875;BME280;44652;49.040;12.126;2023-12-20T08:31:04;97560.44;;;3.47;100.00
58875;BME280;44652;49.040;12.126;2023-12-20T08:33:31;97566.06;;;3.55;100.00
58875;BME280;44652;49.040;12.126;2023-12-20T08:35:57;97571.59;;;3.45;100.00
58875;BME280;44652;49.040;12.126;2023-12-20T08:38:24;97567.97;;;3.41;100.00
58875;BME280;44652;49.040;12.126;2023-12-20T08:40:53;97573.97;;;3.40;100.00
58875;BME280;44652;49.040;12.126;2023-12-20T08:43:20;97585.53;;;3.45;100.00
58875;BME280;44652;49.040;12.126;2023-12-20T08:45:46;97580.81;;;3.38;100.00
58875;BME280;44652;49.040;12.126;2023-12-20T08:48:13;97572.09;;;3.37;100.00
58875;BME280;44652;49.040;12.126;2023-12-20T08:50:40;97580.78;;;3.54;100.00
58875;BME280;44652;49.040;12.126;2023-12-20T08:53:07;97580.97;;;3.57;100.00
58875;BME280;44652;49.040;12.126;2023-12-20T08:55:34;97564.94;;;3.50;100.00
58875;BME280;44652;49.040;12.126;2023-12-20T08:58:00;97585.53;;;3.61;100.00
58875;BME280;44652;49.040;12.126;2023-12-20T09:00:27;97573.63;;;3.50;100.00
58875;BME280;44652;49.040;12.126;2023-12-20T09:02:54;97579.31;;;3.59;100.00
58875;BME280;44652;49.040;12.126;2023-12-20T09:05:21;97580.31;;;3.61;100.00
58875;BME280;44652;49.040;12.126;2023-12-20T09:07:49;97560.19;;;3.59;100.00
58875;BME280;44652;49.040;12.126;2023-12-20T09:10:16;97559.97;;;3.54;100.00
58875;BME280;44652;49.040;12.126;2023-12-20T09:12:50;97549.06;;;3.45;100.00
58875;BME280;44652;49.040;12.126;2023-12-20T09:15:16;97559.78;;;3.51;100.00
58875;BME280;44652;49.040;12.126;2023-12-20T09:17:46;97560.75;;;3.70;100.00
58875;BME280;44652;49.040;12.126;2023-12-20T09:20:13;97560.84;;;3.55;100.00
58875;BME280;44652;49.040;12.126;2023-12-20T09:22:40;97552.97;;;3.53;100.00
58875;BME280;44652;49.040;12.126;2023-12-20T09:25:09;97561.47;;;3.67;100.00
58875;BME280;44652;49.040;12.126;2023-12-20T09:27:37;97568.50;;;3.68;100.00
58875;BME280;44652;49.040;12.126;2023-12-20T09:30:04;97570.28;;;3.69;100.00
58875;BME280;44652;49.040;12.126;2023-12-20T09:32:32;97563.78;;;3.61;100.00
58875;BME280;44652;49.040;12.126;2023-12-20T09:34:58;97573.75;;;3.86;100.00
58875;BME280;44652;49.040;12.126;2023-12-20T09:37:27;97586.38;;;3.95;100.00
58875;BME280;44652;49.040;12.126;2023-12-20T09:39:54;97567.75;;;3.71;100.00
58875;BME280;44652;49.040;12.126;2023-12-20T09:42:38;97559.66;;;3.82;100.00
58875;BME280;44652;49.040;12.126;2023-12-20T09:45:09;97564.38;;;3.89;100.00
58875;BME280;44652;49.040;12.126;2023-12-20T09:47:39;97573.22;;;3.75;100.00
58875;BME280;44652;49.040;12.126;2023-12-20T09:50:06;97566.56;;;3.98;100.00
58875;BME280;44652;49.040;12.126;2023-12-20T09:52:34;97543.28;;;3.85;100.00
58875;BME280;44652;49.040;12.126;2023-12-20T09:55:04;97556.09;;;3.80;100.00
58875;BME280;44652;49.040;12.126;2023-12-20T09:57:32;97566.56;;;3.98;100.00
58875;BME280;44652;49.040;12.126;2023-12-20T09:59:59;97562.94;;;4.12;100.00
58875;BME280;44652;49.040;12.126;2023-12-20T10:02:26;97558.75;;;4.16;100.00
58875;BME280;44652;49.040;12.126;2023-12-20T10:04:54;97551.97;;;4.20;100.00
58875;BME280;44652;49.040;12.126;2023-12-20T10:07:21;97551.03;;;4.18;100.00
58875;BME280;44652;49.040;12.126;2023-12-20T10:09:51;97534.56;;;4.19;100.00
58875;BME280;44652;49.040;12.126;2023-12-20T10:12:20;97550.66;;;4.28;100.00
58875;BME280;44652;49.040;12.126;2023-12-20T10:14:47;97540.81;;;4.22;100.00
58875;BME280;44652;49.040;12.126;2023-12-20T10:17:13;97532.78;;;4.18;100.00
58875;BME280;44652;49.040;12.126;2023-12-20T10:19:42;97550.00;;;4.32;100.00
58875;BME280;44652;49.040;12.126;2023-12-20T10:22:10;97553.13;;;4.25;100.00
58875;BME280;44652;49.040;12.126;2023-12-20T10:24:36;97554.84;;;4.42;100.00
58875;BME280;44652;49.040;12.126;2023-12-20T10:27:04;97548.94;;;4.46;100.00
58875;BME280;44652;49.040;12.126;2023-12-20T10:29:38;97536.72;;;4.45;100.00
58875;BME280;44652;49.040;12.126;2023-12-20T10:32:31;97558.81;;;4.52;100.00
58875;BME280;44652;49.040;12.126;2023-12-20T10:34:58;97560.88;;;4.59;100.00
58875;BME280;44652;49.040;12.126;2023-12-20T10:37:26;97547.91;;;4.43;100.00
58875;BME280;44652;49.040;12.126;2023-12-20T10:39:54;97550.38;;;4.22;100.00
58875;BME280;44652;49.040;12.126;2023-12-20T10:42:26;97565.13;;;4.39;100.00
58875;BME280;44652;49.040;12.126;2023-12-20T10:44:53;97566.69;;;4.35;100.00
58875;BME280;44652;49.040;12.126;2023-12-20T10:47:20;97547.41;;;4.32;100.00
58875;BME280;44652;49.040;12.126;2023-12-20T10:49:47;97546.56;;;4.33;100.00
58875;BME280;44652;49.040;12.126;2023-12-20T10:52:16;97564.63;;;4.28;100.00
58875;BME280;44652;49.040;12.126;2023-12-20T10:54:44;97579.31;;;4.44;100.00
58875;BME280;44652;49.040;12.126;2023-12-20T10:57:11;97576.41;;;4.56;100.00
58875;BME280;44652;49.040;12.126;2023-12-20T10:59:39;97553.50;;;4.32;100.00
58875;BME280;44652;49.040;12.126;2023-12-20T11:02:06;97549.19;;;4.33;100.00
58875;BME280;44652;49.040;12.126;2023-12-20T11:07:25;97547.06;;;4.79;100.00
58875;BME280;44652;49.040;12.126;2023-12-20T11:09:59;97548.94;;;4.82;100.00
58875;BME280;44652;49.040;12.126;2023-12-20T11:13:03;97548.03;;;4.81;100.00
58875;BME280;44652;49.040;12.126;2023-12-20T11:15:39;97539.84;;;4.74;100.00
58875;BME280;44652;49.040;12.126;2023-12-20T11:18:06;97525.78;;;4.90;100.00
58875;BME280;44652;49.040;12.126;2023-12-20T11:20:38;97511.34;;;4.78;100.00
58875;BME280;44652;49.040;12.126;2023-12-20T11:23:05;97525.16;;;4.95;100.00
58875;BME280;44652;49.040;12.126;2023-12-20T11:25:52;97507.03;;;4.98;100.00
58875;BME280;44652;49.040;12.126;2023-12-20T11:28:23;97524.25;;;5.12;100.00
58875;BME280;44652;49.040;12.126;2023-12-20T11:30:53;97511.16;;;4.93;100.00
58875;BME280;44652;49.040;12.126;2023-12-20T11:33:24;97506.38;;;4.84;100.00
58875;BME280;44652;49.040;12.126;2023-12-20T11:35:55;97523.97;;;4.88;99.51
58875;BME280;44652;49.040;12.126;2023-12-20T11:38:23;97515.06;;;4.83;98.22
58875;BME280;44652;49.040;12.126;2023-12-20T11:40:53;97502.09;;;4.85;99.00
58875;BME280;44652;49.040;12.126;2023-12-20T11:43:39;97509.78;;;5.01;99.26
58875;BME280;44652;49.040;12.126;2023-12-20T11:46:06;97485.78;;;4.91;98.83
58875;BME280;44652;49.040;12.126;2023-12-20T11:48:38;97501.06;;;5.20;96.40
58875;BME280;44652;49.040;12.126;2023-12-20T11:51:12;97498.03;;;5.11;96.48
58875;BME280;44652;49.040;12.126;2023-12-20T11:53:40;97499.16;;;5.35;96.94
58875;BME280;44652;49.040;12.126;2023-12-20T11:56:09;97493.84;;;5.34;93.05
58875;BME280;44652;49.040;12.126;2023-12-20T11:58:36;97490.56;;;5.38;94.96
58875;BME280;44652;49.040;12.126;2023-12-20T12:01:04;97459.06;;;5.35;95.53
58875;BME280;44652;49.040;12.126;2023-12-20T12:03:33;97482.41;;;5.51;94.21
58875;BME280;44652;49.040;12.126;2023-12-20T12:06:01;97468.53;;;5.33;93.62
58875;BME280;44652;49.040;12.126;2023-12-20T12:08:31;97456.47;;;5.16;93.79
58875;BME280;44652;49.040;12.126;2023-12-20T12:10:58;97467.31;;;5.25;93.30
58875;BME280;44652;49.040;12.126;2023-12-20T12:13:24;97474.22;;;5.23;92.84
58875;BME280;44652;49.040;12.126;2023-12-20T12:15:54;97477.75;;;5.25;92.57
58875;BME280;44652;49.040;12.126;2023-12-20T12:18:21;97465.06;;;4.94;90.18
58875;BME280;44652;49.040;12.126;2023-12-20T12:20:48;97482.09;;;5.05;91.86
58875;BME280;44652;49.040;12.126;2023-12-20T12:23:22;97491.44;;;5.00;89.43
58875;BME280;44652;49.040;12.126;2023-12-20T12:25:50;97471.34;;;4.79;89.55
58875;BME280;44652;49.040;12.126;2023-12-20T12:28:17;97475.97;;;4.85;90.25
58875;BME280;44652;49.040;12.126;2023-12-20T12:30:56;97478.59;;;4.85;90.54
58875;BME280;44652;49.040;12.126;2023-12-20T12:33:27;97507.84;;;4.78;91.07
58875;BME280;44652;49.040;12.126;2023-12-20T12:35:54;97495.22;;;4.69;91.83
58875;BME280;44652;49.040;12.126;2023-12-20T12:38:22;97500.19;;;4.63;91.72
58875;BME280;44652;49.040;12.126;2023-12-20T12:40:49;97514.59;;;4.55;91.70
58875;BME280;44652;49.040;12.126;2023-12-20T12:43:16;97493.97;;;4.61;92.94
58875;BME280;44652;49.040;12.126;2023-12-20T12:45:43;97518.03;;;4.73;91.96
58875;BME280;44652;49.040;12.126;2023-12-20T12:48:10;97486.94;;;4.58;92.41
58875;BME280;44652;49.040;12.126;2023-12-20T12:50:37;97480.25;;;4.65;92.98
58875;BME280;44652;49.040;12.126;2023-12-20T12:53:04;97485.78;;;4.91;91.53
58875;BME280;44652;49.040;12.126;2023-12-20T12:55:30;97472.25;;;4.80;92.74
58875;BME280;44652;49.040;12.126;2023-12-20T12:57:57;97468.34;;;4.70;90.97
58875;BME280;44652;49.040;12.126;2023-12-20T13:00:24;97469.38;;;4.74;92.11
58875;BME280;44652;49.040;12.126;2023-12-20T13:02:52;97471.66;;;4.85;92.19
58875;BME280;44652;49.040;12.126;2023-12-20T13:05:19;97456.56;;;4.60;91.86
58875;BME280;44652;49.040;12.126;2023-12-20T13:07:46;97474.59;;;4.74;93.75
58875;BME280;44652;49.040;12.126;2023-12-20T13:10:14;97480.16;;;4.81;94.07
58875;BME280;44652;49.040;12.126;2023-12-20T13:12:44;97483.06;;;4.70;94.13
58875;BME280;44652;49.040;12.126;2023-12-20T13:15:11;97484.94;;;4.72;93.67
58875;BME280;44652;49.040;12.126;2023-12-20T13:17:38;97464.56;;;4.46;94.34
58875;BME280;44652;49.040;12.126;2023-12-20T13:20:07;97461.22;;;4.48;95.17
58875;BME280;44652;49.040;12.126;2023-12-20T13:22:34;97470.78;;;4.67;95.77
58875;BME280;44652;49.040;12.126;2023-12-20T13:25:01;97465.06;;;4.56;96.57
58875;BME280;44652;49.040;12.126;2023-12-20T13:27:29;97480.88;;;4.59;94.75
58875;BME280;44652;49.040;12.126;2023-12-20T13:29:56;97474.72;;;4.39;95.68
58875;BME280;44652;49.040;12.126;2023-12-20T13:32:23;97491.56;;;4.28;96.05
58875;BME280;44652;49.040;12.126;2023-12-20T13:34:50;97479.78;;;4.36;96.61
58875;BME280;44652;49.040;12.126;2023-12-20T13:37:17;97478.91;;;4.36;95.98
58875;BME280;44652;49.040;12.126;2023-12-20T13:39:45;97493.94;;;4.42;96.65
58875;BME280;44652;49.040;12.126;2023-12-20T13:42:12;97476.56;;;4.42;97.18
58875;BME280;44652;49.040;12.126;2023-12-20T13:44:39;97473.81;;;4.39;96.92
58875;BME280;44652;49.040;12.126;2023-12-20T13:47:06;97469.78;;;4.28;98.08
58875;BME280;44652;49.040;12.126;2023-12-20T13:49:32;97489.38;;;4.55;98.24
58875;BME280;44652;49.040;12.126;2023-12-20T13:51:59;97466.38;;;4.29;96.35
58875;BME280;44652;49.040;12.126;2023-12-20T13:54:26;97478.59;;;4.12;96.66
58875;BME280;44652;49.040;12.126;2023-12-20T13:56:53;97485.97;;;4.03;97.68
58875;BME280;44652;49.040;12.126;2023-12-20T13:59:37;97493.88;;;4.22;98.99
58875;BME280;44652;49.040;12.126;2023-12-20T14:02:05;97479.25;;;4.08;99.86
58875;BME280;44652;49.040;12.126;2023-12-20T14:04:32;97509.06;;;4.31;98.83
58875;BME280;44652;49.040;12.126;2023-12-20T14:07:09;97508.81;;;4.08;99.20
58875;BME280;44652;49.040;12.126;2023-12-20T14:09:38;97497.34;;;3.87;99.50
58875;BME280;44652;49.040;12.126;2023-12-20T14:12:05;97503.00;;;3.96;99.71
58875;BME280;44652;49.040;12.126;2023-12-20T14:14:32;97513.81;;;4.04;99.81
58875;BME280;44652;49.040;12.126;2023-12-20T14:16:58;97493.69;;;4.01;100.00
58875;BME280;44652;49.040;12.126;2023-12-20T14:19:27;97516.28;;;4.01;100.00
58875;BME280;44652;49.040;12.126;2023-12-20T14:21:54;97501.78;;;4.06;100.00
58875;BME280;44652;49.040;12.126;2023-12-20T14:24:21;97496.75;;;3.93;99.82
58875;BME280;44652;49.040;12.126;2023-12-20T14:26:48;97521.50;;;4.19;100.00
58875;BME280;44652;49.040;12.126;2023-12-20T14:29:15;97513.69;;;4.19;100.00
58875;BME280;44652;49.040;12.126;2023-12-20T14:31:41;97498.13;;;4.02;99.56
58875;BME280;44652;49.040;12.126;2023-12-20T14:34:08;97502.44;;;4.02;100.00
58875;BME280;44652;49.040;12.126;2023-12-20T14:36:35;97496.31;;;3.83;100.00
58875;BME280;44652;49.040;12.126;2023-12-20T14:39:02;97507.72;;;4.03;97.50
58875;BME280;44652;49.040;12.126;2023-12-20T14:41:31;97505.69;;;3.98;98.34
58875;BME280;44652;49.040;12.126;2023-12-20T14:43:58;97506.72;;;4.01;99.29
58875;BME280;44652;49.040;12.126;2023-12-20T14:46:27;97464.19;;;3.84;97.78
58875;BME280;44652;49.040;12.126;2023-12-20T14:48:55;97505.06;;;4.02;98.24
58875;BME280;44652;49.040;12.126;2023-12-20T14:51:22;97492.28;;;3.90;97.78
58875;BME280;44652;49.040;12.126;2023-12-20T14:53:49;97475.28;;;3.80;98.60
58875;BME280;44652;49.040;12.126;2023-12-20T14:56:16;97464.88;;;3.80;98.13
58875;BME280;44652;49.040;12.126;2023-12-20T14:58:42;97446.84;;;3.85;97.86
58875;BME280;44652;49.040;12.126;2023-12-20T15:01:09;97487.00;;;3.88;97.85
58875;BME280;44652;49.040;12.126;2023-12-20T15:03:36;97480.00;;;3.87;97.50
58875;BME280;44652;49.040;12.126;2023-12-20T15:06:03;97472.25;;;3.89;97.99
58875;BME280;44652;49.040;12.126;2023-12-20T15:08:30;97475.31;;;3.98;97.23
58875;BME280;44652;49.040;12.126;2023-12-20T15:10:57;97458.25;;;3.87;96.41
58875;BME280;44652;49.040;12.126;2023-12-20T15:13:24;97460.38;;;3.78;97.14
58875;BME280;44652;49.040;12.126;2023-12-20T15:15:51;97461.22;;;3.77;98.05
58875;BME280;44652;49.040;12.126;2023-12-20T15:18:18;97457.72;;;3.76;97.77
58875;BME280;44652;49.040;12.126;2023-12-20T15:20:44;97446.69;;;3.64;98.51
58875;BME280;44652;49.040;12.126;2023-12-20T15:23:12;97454.06;;;3.73;98.01
58875;BME280;44652;49.040;12.126;2023-12-20T15:25:38;97457.00;;;3.62;98.94
58875;BME280;44652;49.040;12.126;2023-12-20T15:28:05;97461.13;;;3.57;98.97
58875;BME280;44652;49.040;12.126;2023-12-20T15:30:32;97437.31;;;3.33;100.00
58875;BME280;44652;49.040;12.126;2023-12-20T15:32:59;97430.69;;;3.40;99.64
58875;BME280;44652;49.040;12.126;2023-12-20T15:35:30;97452.31;;;3.55;100.00
58875;BME280;44652;49.040;12.126;2023-12-20T15:37:57;97433.06;;;3.35;99.98
58875;BME280;44652;49.040;12.126;2023-12-20T15:40:25;97437.19;;;3.48;99.70
58875;BME280;44652;49.040;12.126;2023-12-20T15:42:52;97456.25;;;3.47;100.00
58875;BME280;44652;49.040;12.126;2023-12-20T15:45:19;97441.97;;;3.23;100.00
58875;BME280;44652;49.040;12.126;2023-12-20T15:47:46;97437.31;;;3.33;100.00
58875;BME280;44652;49.040;12.126;2023-12-20T15:50:13;97444.31;;;3.34;100.00
58875;BME280;44652;49.040;12.126;2023-12-20T15:52:40;97469.50;;;3.52;100.00
58875;BME280;44652;49.040;12.126;2023-12-20T15:55:09;97445.47;;;3.23;100.00
58875;BME280;44652;49.040;12.126;2023-12-20T15:57:36;97465.31;;;3.37;100.00
58875;BME280;44652;49.040;12.126;2023-12-20T16:00:19;97470.25;;;3.33;100.00
58875;BME280;44652;49.040;12.126;2023-12-20T16:02:45;97461.50;;;3.31;100.00
58875;BME280;44652;49.040;12.126;2023-12-20T16:05:12;97460.16;;;3.39;100.00
58875;BME280;44652;49.040;12.126;2023-12-20T16:07:39;97429.34;;;3.14;100.00
58875;BME280;44652;49.040;12.126;2023-12-20T16:10:06;97463.38;;;3.33;100.00
58875;BME280;44652;49.040;12.126;2023-12-20T16:12:33;97475.56;;;3.34;100.00
58875;BME280;44652;49.040;12.126;2023-12-20T16:15:00;97485.72;;;3.46;100.00
58875;BME280;44652;49.040;12.126;2023-12-20T16:17:28;97471.25;;;3.35;100.00
58875;BME280;44652;49.040;12.126;2023-12-20T16:19:55;97494.34;;;3.45;100.00
58875;BME280;44652;49.040;12.126;2023-12-20T16:22:22;97475.34;;;3.30;100.00
58875;BME280;44652;49.040;12.126;2023-12-20T16:24:49;97483.88;;;3.27;100.00
58875;BME280;44652;49.040;12.126;2023-12-20T16:27:16;97485.56;;;3.43;100.00
58875;BME280;44652;49.040;12.126;2023-12-20T16:29:42;97492.03;;;3.33;100.00
58875;BME280;44652;49.040;12.126;2023-12-20T16:32:10;97467.81;;;3.36;100.00
58875;BME280;44652;49.040;12.126;2023-12-20T16:34:37;97481.41;;;3.47;100.00
58875;BME280;44652;49.040;12.126;2023-12-20T16:37:04;97467.91;;;3.21;100.00
58875;BME280;44652;49.040;12.126;2023-12-20T16:39:31;97471.97;;;3.32;100.00
58875;BME280;44652;49.040;12.126;2023-12-20T16:41:58;97474.69;;;3.52;99.60
58875;BME280;44652;49.040;12.126;2023-12-20T16:44:25;97477.97;;;3.48;99.99
58875;BME280;44652;49.040;12.126;2023-12-20T16:46:51;97487.00;;;3.54;100.00
58875;BME280;44652;49.040;12.126;2023-12-20T16:49:18;97483.63;;;3.39;100.00
58875;BME280;44652;49.040;12.126;2023-12-20T16:51:45;97466.75;;;3.49;99.24
58875;BME280;44652;49.040;12.126;2023-12-20T16:54:12;97477.41;;;3.53;98.91
58875;BME280;44652;49.040;12.126;2023-12-20T16:56:39;97469.59;;;3.53;98.98
58875;BME280;44652;49.040;12.126;2023-12-20T16:59:05;97459.34;;;3.40;99.66
58875;BME280;44652;49.040;12.126;2023-12-20T17:01:32;97464.44;;;3.55;98.33
58875;BME280;44652;49.040;12.126;2023-12-20T17:03:59;97454.75;;;3.52;98.98
58875;BME280;44652;49.040;12.126;2023-12-20T17:06:25;97455.06;;;3.58;98.68
58875;BME280;44652;49.040;12.126;2023-12-20T17:08:53;97455.41;;;3.48;100.00
58875;BME280;44652;49.040;12.126;2023-12-20T17:11:20;97443.22;;;3.47;98.40
58875;BME280;44652;49.040;12.126;2023-12-20T17:13:48;97457.63;;;3.57;98.42
58875;BME280;44652;49.040;12.126;2023-12-20T17:16:15;97434.31;;;3.60;96.82
58875;BME280;44652;49.040;12.126;2023-12-20T17:18:41;97445.75;;;3.63;96.91
58875;BME280;44652;49.040;12.126;2023-12-20T17:21:13;97465.22;;;3.70;97.24
58875;BME280;44652;49.040;12.126;2023-12-20T17:23:39;97453.28;;;3.57;96.89
58875;BME280;44652;49.040;12.126;2023-12-20T17:26:06;97473.63;;;3.64;96.98
58875;BME280;44652;49.040;12.126;2023-12-20T17:28:33;97459.56;;;3.61;96.68
58875;BME280;44652;49.040;12.126;2023-12-20T17:30:59;97488.44;;;3.65;96.88
58875;BME280;44652;49.040;12.126;2023-12-20T17:33:26;97488.59;;;3.69;96.83
58875;BME280;44652;49.040;12.126;2023-12-20T17:35:53;97454.63;;;3.49;96.93
58875;BME280;44652;49.040;12.126;2023-12-20T17:38:21;97481.47;;;3.64;97.63
58875;BME280;44652;49.040;12.126;2023-12-20T17:40:48;97455.03;;;3.40;97.73
58875;BME280;44652;49.040;12.126;2023-12-20T17:43:16;97487.78;;;3.70;97.08
58875;BME280;44652;49.040;12.126;2023-12-20T17:45:42;97478.19;;;3.69;96.48
58875;BME280;44652;49.040;12.126;2023-12-20T17:48:09;97476.41;;;3.68;96.96
58875;BME280;44652;49.040;12.126;2023-12-20T17:50:36;97486.06;;;3.70;96.80
58875;BME280;44652;49.040;12.126;2023-12-20T17:53:03;97477.84;;;3.62;97.07
58875;BME280;44652;49.040;12.126;2023-12-20T17:55:29;97480.47;;;3.62;97.10
58875;BME280;44652;49.040;12.126;2023-12-20T17:57:56;97477.03;;;3.63;97.06
58875;BME280;44652;49.040;12.126;2023-12-20T18:00:26;97449.97;;;3.44;97.13
58875;BME280;44652;49.040;12.126;2023-12-20T18:02:54;97451.84;;;3.46;97.71
58875;BME280;44652;49.040;12.126;2023-12-20T18:05:21;97466.38;;;3.59;96.92
58875;BME280;44652;49.040;12.126;2023-12-20T18:07:50;97459.00;;;3.50;97.19
58875;BME280;44652;49.040;12.126;2023-12-20T18:10:16;97469.88;;;3.59;97.30
58875;BME280;44652;49.040;12.126;2023-12-20T18:12:43;97469.94;;;3.43;97.81
58875;BME280;44652;49.040;12.126;2023-12-20T18:15:11;97461.94;;;3.40;97.41
58875;BME280;44652;49.040;12.126;2023-12-20T18:17:38;97483.41;;;3.69;96.50
58875;BME280;44652;49.040;12.126;2023-12-20T18:20:06;97473.09;;;3.54;97.87
58875;BME280;44652;49.040;12.126;2023-12-20T18:22:33;97483.66;;;3.57;97.11
58875;BME280;44652;49.040;12.126;2023-12-20T18:24:59;97490.28;;;3.50;97.35
58875;BME280;44652;49.040;12.126;2023-12-20T18:27:26;97493.09;;;3.55;97.59
58875;BME280;44652;49.040;12.126;2023-12-20T18:29:53;97492.28;;;3.56;97.57
58875;BME280;44652;49.040;12.126;2023-12-20T18:32:35;97504.75;;;3.61;97.34
58875;BME280;44652;49.040;12.126;2023-12-20T18:35:02;97479.38;;;3.41;97.92
58875;BME280;44652;49.040;12.126;2023-12-20T18:37:31;97493.34;;;3.59;97.94
58875;BME280;44652;49.040;12.126;2023-12-20T18:40:02;97490.81;;;3.61;97.23
58875;BME280;44652;49.040;12.126;2023-12-20T18:42:29;97483.66;;;3.57;97.34
58875;BME280;44652;49.040;12.126;2023-12-20T18:44:58;97490.28;;;3.50;98.62
58875;BME280;44652;49.040;12.126;2023-12-20T18:47:26;97483.41;;;3.52;97.11
58875;BME280;44652;49.040;12.126;2023-12-20T18:49:54;97479.13;;;3.53;97.46
58875;BME280;44652;49.040;12.126;2023-12-20T18:52:21;97475.69;;;3.54;96.91
58875;BME280;44652;49.040;12.126;2023-12-20T18:54:49;97502.19;;;3.63;96.96
58875;BME280;44652;49.040;12.126;2023-12-20T18:57:16;97478.72;;;3.45;97.98